createdAt,value
2022-11-18T00:03:10.440Z,9.00
2022-11-18T00:08:13.930Z,10.52
2022-11-18T00:13:36.955Z,9.20
2022-11-18T00:18:40.623Z,9.70
2022-11-18T00:23:44.095Z,10.18
2022-11-18T00:28:48.910Z,12.52
2022-11-18T00:33:52.420Z,13.98
2022-11-18T00:38:56.300Z,7.40
2022-11-18T00:44:05.076Z,9.07
2022-11-18T00:49:11.737Z,7.43
2022-11-18T00:54:15.242Z,6.68
2022-11-18T00:59:20.487Z,8.45
2022-11-18T01:04:24.356Z,7.13
2022-11-18T01:09:27.854Z,7.25
2022-11-18T01:14:32.851Z,6.90
2022-11-18T01:19:36.565Z,8.43
2022-11-18T01:24:40.024Z,7.13
2022-11-18T01:29:44.890Z,10.13
2022-11-18T01:34:48.425Z,7.65
2022-11-18T01:39:51.982Z,7.45
2022-11-18T01:45:09.707Z,5.57
2022-11-18T01:50:16.204Z,7.20
2022-11-18T01:55:24.851Z,8.27
2022-11-18T02:00:29.691Z,8.70
2022-11-18T02:05:34.952Z,9.52
2022-11-18T02:10:38.461Z,9.40
2022-11-18T02:15:52.233Z,11.68
2022-11-18T02:21:03.836Z,8.02
2022-11-18T02:26:39.219Z,10.63
2022-11-18T02:31:50.937Z,6.30
2022-11-18T02:36:59.050Z,7.05
2022-11-18T02:42:05.244Z,5.50
2022-11-18T02:47:15.023Z,5.28
2022-11-18T02:52:20.443Z,8.48
2022-11-18T02:57:27.357Z,10.18
2022-11-18T03:02:41.699Z,7.32
2022-11-18T03:07:49.232Z,10.30
2022-11-18T03:13:03.630Z,9.93
2022-11-18T03:18:17.746Z,6.55
2022-11-18T03:23:29.299Z,9.25
2022-11-18T03:28:37.282Z,6.20
2022-11-18T03:33:46.947Z,11.95
2022-11-18T03:38:56.049Z,9.68
2022-11-18T03:44:06.734Z,11.77
2022-11-18T03:49:16.806Z,6.15
2022-11-18T03:54:25.384Z,6.57
2022-11-18T03:59:34.481Z,7.40
2022-11-18T04:04:39.963Z,6.40
2022-11-18T04:09:48.695Z,10.18
2022-11-18T04:14:55.482Z,8.95
2022-11-18T04:20:00.661Z,9.50
2022-11-18T04:25:04.378Z,7.57
2022-11-18T04:30:09.040Z,10.43
2022-11-18T04:35:14.067Z,9.32
2022-11-18T04:40:17.961Z,9.35
2022-11-18T04:45:21.451Z,13.85
2022-11-18T04:50:26.307Z,7.68
2022-11-18T04:55:29.938Z,12.85
2022-11-18T05:00:33.419Z,8.60
2022-11-18T05:05:38.271Z,8.55
2022-11-18T05:10:41.822Z,9.27
2022-11-18T05:15:45.326Z,11.13
2022-11-18T05:20:50.226Z,7.25
2022-11-18T05:25:56.012Z,9.70
2022-11-18T05:31:08.439Z,11.18
2022-11-18T05:36:15.645Z,10.07
2022-11-18T05:41:33.379Z,6.80
2022-11-18T05:46:36.984Z,7.75
2022-11-18T05:51:41.783Z,10.75
2022-11-18T05:56:46.326Z,14.82
2022-11-18T06:01:53.266Z,8.68
2022-11-18T06:07:04.469Z,13.48
2022-11-18T06:12:09.137Z,7.25
2022-11-18T06:17:17.443Z,7.93
2022-11-18T06:22:22.545Z,9.95
2022-11-18T06:27:26.037Z,9.50
2022-11-18T06:32:29.502Z,9.68
2022-11-18T06:37:34.457Z,9.35
2022-11-18T06:42:55.336Z,9.90
2022-11-18T06:48:00.282Z,9.95
2022-11-18T06:53:05.139Z,8.32
2022-11-18T06:58:08.717Z,10.02
2022-11-18T07:03:12.212Z,12.68
2022-11-18T07:08:17.088Z,11.13
2022-11-18T07:13:20.945Z,9.38
2022-11-18T07:18:24.561Z,10.20
2022-11-18T07:23:29.604Z,10.40
2022-11-18T07:28:33.709Z,7.60
2022-11-18T07:33:38.241Z,11.23
2022-11-18T07:38:43.326Z,10.38
2022-11-18T07:43:48.228Z,10.40
2022-11-18T07:48:53.865Z,8.60
2022-11-18T07:53:58.838Z,12.88
2022-11-18T09:17:53.372Z,13.82
2022-11-18T09:22:56.937Z,10.75
2022-11-18T09:28:00.521Z,11.43
2022-11-18T09:33:07.238Z,11.55
2022-11-18T09:38:11.009Z,11.73
2022-11-18T09:43:21.994Z,14.20
2022-11-18T09:48:47.854Z,11.50
2022-11-18T09:53:51.486Z,11.60
2022-11-18T09:58:55.966Z,9.70
2022-11-18T10:04:01.040Z,14.13
2022-11-18T10:09:25.343Z,9.18
2022-11-18T10:14:45.252Z,14.48
2022-11-18T10:19:56.140Z,10.82
2022-11-18T10:25:00.911Z,16.23
2022-11-18T10:30:14.081Z,14.00
2022-11-18T10:35:27.555Z,12.93
2022-11-18T10:40:32.896Z,10.90
2022-11-18T10:45:36.825Z,12.35
2022-11-18T10:50:43.422Z,10.68
2022-11-18T10:56:00.153Z,19.00
2022-11-18T11:01:08.939Z,12.98
2022-11-18T11:06:29.986Z,13.90
2022-11-18T11:11:36.369Z,8.10
2022-11-18T11:16:48.129Z,11.90
2022-11-18T11:21:53.620Z,30.77
2022-11-18T11:32:41.671Z,14.63
2022-11-18T11:37:55.187Z,8.90
2022-11-18T11:43:21.002Z,10.45
2022-11-18T11:48:36.464Z,10.13
2022-11-18T11:53:53.810Z,10.88
2022-11-18T11:59:14.500Z,15.30
2022-11-18T12:04:38.787Z,16.38
2022-11-18T12:09:58.686Z,18.60
2022-11-18T12:15:23.988Z,11.65
2022-11-18T12:20:43.550Z,11.02
2022-11-18T12:26:04.141Z,12.80
2022-11-18T12:31:38.693Z,12.57
2022-11-18T12:36:42.470Z,14.88
2022-11-18T12:42:15.759Z,13.25
2022-11-18T12:47:58.088Z,15.38
2022-11-18T12:53:01.723Z,12.85
2022-11-18T12:58:23.320Z,12.38
2022-11-18T13:03:30.688Z,14.07
2022-11-18T13:08:35.127Z,13.48
2022-11-18T13:13:41.287Z,8.35
2022-11-18T13:18:52.477Z,7.75
2022-11-18T13:29:23.426Z,9.23
2022-11-18T13:34:28.778Z,11.40
2022-11-18T13:39:33.790Z,11.30
2022-11-18T13:44:39.797Z,13.23
2022-11-18T13:49:53.764Z,13.10
2022-11-18T13:55:00.246Z,17.52
2022-11-18T14:00:08.748Z,14.43
2022-11-18T14:05:21.705Z,12.55
2022-11-18T14:10:35.366Z,10.68
2022-11-18T14:15:44.804Z,9.52
2022-11-18T14:20:53.136Z,9.85
2022-11-18T14:26:16.056Z,17.80
2022-11-18T14:31:41.686Z,12.23
2022-11-18T14:36:45.659Z,9.85
2022-11-18T14:41:49.438Z,11.25
2022-11-18T14:46:58.385Z,13.20
2022-11-18T14:52:22.127Z,10.85
2022-11-18T14:57:25.875Z,11.15
2022-11-18T15:02:31.012Z,18.55
2022-11-18T15:07:35.427Z,11.75
2022-11-18T15:12:39.340Z,9.27
2022-11-18T15:17:45.164Z,11.55
2022-11-18T15:22:50.074Z,16.48
2022-11-18T15:27:53.823Z,12.35
2022-11-18T15:32:58.965Z,13.88
2022-11-18T15:38:03.327Z,16.00
2022-11-18T15:43:06.906Z,21.80
2022-11-18T15:48:12.235Z,12.38
2022-11-18T15:53:16.272Z,10.52
2022-11-18T15:58:20.539Z,16.95
2022-11-18T16:03:27.686Z,13.88
2022-11-18T16:08:31.640Z,18.10
2022-11-18T16:13:35.076Z,17.00
2022-11-18T16:18:40.939Z,17.23
2022-11-18T16:23:44.711Z,17.13
2022-11-18T16:28:48.429Z,16.80
2022-11-18T16:33:53.275Z,18.33
2022-11-18T16:38:57.050Z,20.27
2022-11-18T16:44:03.382Z,14.27
2022-11-18T16:49:11.909Z,16.88
2022-11-18T16:54:18.947Z,13.13
2022-11-18T16:59:23.776Z,23.45
2022-11-18T17:04:30.446Z,11.85
2022-11-18T17:09:34.032Z,17.30
2022-11-18T17:14:38.681Z,21.75
2022-11-18T17:19:43.713Z,19.65
2022-11-18T17:24:47.340Z,25.08
2022-11-18T17:29:51.417Z,15.43
2022-11-18T17:34:56.359Z,18.88
2022-11-18T17:39:59.866Z,24.33
2022-11-18T17:45:03.698Z,25.40
2022-11-18T17:50:09.833Z,27.60
2022-11-18T17:55:13.374Z,31.40
2022-11-18T18:00:18.282Z,38.72
2022-11-18T18:05:23.292Z,44.30
2022-11-18T18:10:27.689Z,37.15
2022-11-18T18:15:31.524Z,39.35
2022-11-18T18:20:36.714Z,35.10
2022-11-18T18:25:40.238Z,34.40
2022-11-18T18:30:43.876Z,35.90
2022-11-18T18:35:48.726Z,29.80
2022-11-18T18:40:52.234Z,24.80
2022-11-18T18:46:18.103Z,24.92
2022-11-18T18:51:23.181Z,27.95
2022-11-18T18:56:27.544Z,27.42
2022-11-18T19:01:31.623Z,28.48
2022-11-18T19:12:18.316Z,28.10
2022-11-18T19:22:29.902Z,30.60
2022-11-18T19:27:34.026Z,31.40
2022-11-18T19:32:37.912Z,35.97
2022-11-18T19:37:42.994Z,31.60
2022-11-18T19:42:47.818Z,35.38
2022-11-18T19:47:51.466Z,36.85
2022-11-18T19:52:57.995Z,27.38
2022-11-18T19:58:01.928Z,30.48
2022-11-18T20:03:06.240Z,31.88
2022-11-18T20:08:11.184Z,24.77
2022-11-18T20:13:14.892Z,25.02
2022-11-18T20:18:22.267Z,23.95
2022-11-18T20:23:27.211Z,22.90
2022-11-18T20:28:30.896Z,19.95
2022-11-18T20:33:35.491Z,19.77
2022-11-18T20:38:41.171Z,23.45
2022-11-18T20:43:45.006Z,18.00
2022-11-18T20:48:49.254Z,19.45
2022-11-18T20:53:56.672Z,21.63
2022-11-18T20:59:00.341Z,23.13
2022-11-18T21:04:04.687Z,21.05
2022-11-18T21:09:09.620Z,28.27
2022-11-18T21:14:25.290Z,24.52
2022-11-18T21:19:30.060Z,22.88
2022-11-18T21:24:35.928Z,23.27
2022-11-18T21:29:41.513Z,20.48
2022-11-18T21:34:45.172Z,24.63
2022-11-18T21:39:50.090Z,21.05
2022-11-18T21:44:53.679Z,25.30
2022-11-18T21:49:57.234Z,27.90
2022-11-18T21:55:02.510Z,27.58
2022-11-18T22:00:07.903Z,24.65
2022-11-18T22:05:15.521Z,26.95
2022-11-18T22:10:20.489Z,31.15
2022-11-18T22:15:24.793Z,29.00
2022-11-18T22:20:28.433Z,26.75
2022-11-18T22:25:33.281Z,25.52
2022-11-18T22:30:37.365Z,32.22
2022-11-18T22:35:40.858Z,27.88
2022-11-18T22:40:45.813Z,29.50
2022-11-18T22:45:49.327Z,30.90
2022-11-18T22:50:57.301Z,33.33
2022-11-18T22:56:07.145Z,26.25
2022-11-18T23:01:13.098Z,31.48
2022-11-18T23:06:16.718Z,34.22
2022-11-18T23:11:35.913Z,29.48
2022-11-18T23:16:41.515Z,24.30
2022-11-18T23:21:45.519Z,27.13
2022-11-18T23:26:50.455Z,23.20
2022-11-18T23:31:54.067Z,29.42
2022-11-18T23:36:57.520Z,22.58
2022-11-18T23:42:02.860Z,22.70
2022-11-18T23:47:06.472Z,24.17
2022-11-18T23:52:09.961Z,24.38
2022-11-18T23:57:14.768Z,23.10
